sensor_id;sensor_type;location;lat;lon;timestamp;P1;durP1;ratioP1;P2;durP2;ratioP2
36915;SDS011;22836;52.268;9.008;2022-07-19T00:03:47;1.23;;;0.70;;
36915;SDS011;22836;52.268;9.008;2022-07-19T00:07:49;0.70;;;0.70;;
36915;SDS011;22836;52.268;9.008;2022-07-19T00:11:52;0.80;;;0.80;;
36915;SDS011;22836;52.268;9.008;2022-07-19T00:15:55;0.80;;;0.80;;
36915;SDS011;22836;52.268;9.008;2022-07-19T00:19:57;0.60;;;0.60;;
36915;SDS011;22836;52.268;9.008;2022-07-19T00:23:59;1.13;;;0.77;;
36915;SDS011;22836;52.268;9.008;2022-07-19T00:28:01;0.70;;;0.70;;
36915;SDS011;22836;52.268;9.008;2022-07-19T00:32:04;1.95;;;0.93;;
36915;SDS011;22836;52.268;9.008;2022-07-19T00:36:06;0.60;;;0.60;;
36915;SDS011;22836;52.268;9.008;2022-07-19T00:40:09;1.10;;;0.77;;
36915;SDS011;22836;52.268;9.008;2022-07-19T00:44:14;0.90;;;0.90;;
36915;SDS011;22836;52.268;9.008;2022-07-19T00:48:15;0.90;;;0.90;;
36915;SDS011;22836;52.268;9.008;2022-07-19T00:52:20;0.90;;;0.90;;
36915;SDS011;22836;52.268;9.008;2022-07-19T00:56:25;1.00;;;1.00;;
36915;SDS011;22836;52.268;9.008;2022-07-19T01:00:32;0.95;;;0.95;;
36915;SDS011;22836;52.268;9.008;2022-07-19T01:04:37;0.80;;;0.80;;
36915;SDS011;22836;52.268;9.008;2022-07-19T01:08:39;0.88;;;0.88;;
36915;SDS011;22836;52.268;9.008;2022-07-19T01:16:45;0.93;;;0.90;;
36915;SDS011;22836;52.268;9.008;2022-07-19T01:20:47;0.80;;;0.80;;
36915;SDS011;22836;52.268;9.008;2022-07-19T01:24:49;1.15;;;1.00;;
36915;SDS011;22836;52.268;9.008;2022-07-19T01:28:52;1.08;;;1.00;;
36915;SDS011;22836;52.268;9.008;2022-07-19T01:32:54;1.27;;;1.17;;
36915;SDS011;22836;52.268;9.008;2022-07-19T01:36:56;1.17;;;0.98;;
36915;SDS011;22836;52.268;9.008;2022-07-19T01:40:58;4.07;;;1.48;;
36915;SDS011;22836;52.268;9.008;2022-07-19T01:45:00;1.38;;;1.00;;
36915;SDS011;22836;52.268;9.008;2022-07-19T01:49:04;0.93;;;0.90;;
36915;SDS011;22836;52.268;9.008;2022-07-19T01:53:09;1.33;;;1.10;;
36915;SDS011;22836;52.268;9.008;2022-07-19T01:57:11;0.90;;;0.90;;
36915;SDS011;22836;52.268;9.008;2022-07-19T02:01:13;1.98;;;1.10;;
36915;SDS011;22836;52.268;9.008;2022-07-19T02:05:15;0.98;;;0.98;;
36915;SDS011;22836;52.268;9.008;2022-07-19T02:09:19;1.15;;;1.05;;
36915;SDS011;22836;52.268;9.008;2022-07-19T02:13:21;2.17;;;1.13;;
36915;SDS011;22836;52.268;9.008;2022-07-19T02:17:23;1.40;;;1.30;;
36915;SDS011;22836;52.268;9.008;2022-07-19T02:21:26;1.70;;;1.15;;
36915;SDS011;22836;52.268;9.008;2022-07-19T02:25:28;1.50;;;1.40;;
36915;SDS011;22836;52.268;9.008;2022-07-19T02:29:29;0.75;;;0.75;;
36915;SDS011;22836;52.268;9.008;2022-07-19T02:33:31;1.20;;;1.10;;
36915;SDS011;22836;52.268;9.008;2022-07-19T02:37:36;0.95;;;0.95;;
36915;SDS011;22836;52.268;9.008;2022-07-19T02:41:40;0.95;;;0.95;;
36915;SDS011;22836;52.268;9.008;2022-07-19T02:45:42;1.08;;;1.08;;
36915;SDS011;22836;52.268;9.008;2022-07-19T02:49:44;1.05;;;1.05;;
36915;SDS011;22836;52.268;9.008;2022-07-19T02:53:46;1.10;;;1.10;;
36915;SDS011;22836;52.268;9.008;2022-07-19T02:57:48;1.00;;;1.00;;
36915;SDS011;22836;52.268;9.008;2022-07-19T03:01:50;1.13;;;1.13;;
36915;SDS011;22836;52.268;9.008;2022-07-19T03:05:52;0.98;;;0.98;;
36915;SDS011;22836;52.268;9.008;2022-07-19T03:09:54;0.98;;;0.98;;
36915;SDS011;22836;52.268;9.008;2022-07-19T03:13:56;1.67;;;0.95;;
36915;SDS011;22836;52.268;9.008;2022-07-19T03:17:58;1.20;;;1.10;;
36915;SDS011;22836;52.268;9.008;2022-07-19T03:22:01;1.17;;;1.10;;
36915;SDS011;22836;52.268;9.008;2022-07-19T03:26:05;1.20;;;1.10;;
36915;SDS011;22836;52.268;9.008;2022-07-19T03:30:08;0.98;;;0.98;;
36915;SDS011;22836;52.268;9.008;2022-07-19T03:34:10;0.80;;;0.80;;
36915;SDS011;22836;52.268;9.008;2022-07-19T03:38:12;0.88;;;0.88;;
36915;SDS011;22836;52.268;9.008;2022-07-19T03:42:15;1.13;;;1.00;;
36915;SDS011;22836;52.268;9.008;2022-07-19T03:46:18;1.45;;;1.10;;
36915;SDS011;22836;52.268;9.008;2022-07-19T03:50:19;1.00;;;1.00;;
36915;SDS011;22836;52.268;9.008;2022-07-19T03:54:21;1.00;;;0.98;;
36915;SDS011;22836;52.268;9.008;2022-07-19T03:58:23;0.90;;;0.90;;
36915;SDS011;22836;52.268;9.008;2022-07-19T04:02:26;0.73;;;0.73;;
36915;SDS011;22836;52.268;9.008;2022-07-19T04:06:28;0.98;;;0.93;;
36915;SDS011;22836;52.268;9.008;2022-07-19T04:10:32;1.52;;;0.98;;
36915;SDS011;22836;52.268;9.008;2022-07-19T04:14:36;1.80;;;0.88;;
36915;SDS011;22836;52.268;9.008;2022-07-19T04:18:38;2.47;;;1.02;;
36915;SDS011;22836;52.268;9.008;2022-07-19T04:22:40;0.93;;;0.93;;
36915;SDS011;22836;52.268;9.008;2022-07-19T04:26:43;0.80;;;0.80;;
36915;SDS011;22836;52.268;9.008;2022-07-19T04:30:45;0.85;;;0.85;;
36915;SDS011;22836;52.268;9.008;2022-07-19T04:34:47;0.90;;;0.90;;
36915;SDS011;22836;52.268;9.008;2022-07-19T04:38:49;0.98;;;0.98;;
36915;SDS011;22836;52.268;9.008;2022-07-19T04:42:51;0.80;;;0.80;;
36915;SDS011;22836;52.268;9.008;2022-07-19T04:46:54;0.77;;;0.70;;
36915;SDS011;22836;52.268;9.008;2022-07-19T04:50:56;1.17;;;1.08;;
36915;SDS011;22836;52.268;9.008;2022-07-19T04:55:01;0.95;;;0.88;;
36915;SDS011;22836;52.268;9.008;2022-07-19T04:59:02;1.95;;;1.20;;
36915;SDS011;22836;52.268;9.008;2022-07-19T05:03:08;1.00;;;1.00;;
36915;SDS011;22836;52.268;9.008;2022-07-19T05:07:14;0.90;;;0.90;;
36915;SDS011;22836;52.268;9.008;2022-07-19T05:11:16;1.00;;;1.00;;
36915;SDS011;22836;52.268;9.008;2022-07-19T05:15:18;0.80;;;0.80;;
36915;SDS011;22836;52.268;9.008;2022-07-19T05:19:20;1.08;;;1.02;;
36915;SDS011;22836;52.268;9.008;2022-07-19T05:23:22;1.00;;;1.00;;
36915;SDS011;22836;52.268;9.008;2022-07-19T05:27:24;0.90;;;0.90;;
36915;SDS011;22836;52.268;9.008;2022-07-19T05:31:26;0.80;;;0.80;;
36915;SDS011;22836;52.268;9.008;2022-07-19T05:35:28;0.88;;;0.88;;
36915;SDS011;22836;52.268;9.008;2022-07-19T05:39:29;0.80;;;0.80;;
36915;SDS011;22836;52.268;9.008;2022-07-19T05:43:31;0.93;;;0.90;;
36915;SDS011;22836;52.268;9.008;2022-07-19T05:47:33;1.10;;;1.00;;
36915;SDS011;22836;52.268;9.008;2022-07-19T05:51:37;1.77;;;0.77;;
36915;SDS011;22836;52.268;9.008;2022-07-19T05:55:39;1.33;;;1.23;;
36915;SDS011;22836;52.268;9.008;2022-07-19T05:59:41;1.67;;;0.90;;
36915;SDS011;22836;52.268;9.008;2022-07-19T06:03:43;1.35;;;1.00;;
36915;SDS011;22836;52.268;9.008;2022-07-19T06:07:58;0.95;;;0.95;;
36915;SDS011;22836;52.268;9.008;2022-07-19T06:12:00;0.93;;;0.93;;
36915;SDS011;22836;52.268;9.008;2022-07-19T06:16:02;0.90;;;0.90;;
36915;SDS011;22836;52.268;9.008;2022-07-19T06:20:05;1.15;;;0.88;;
36915;SDS011;22836;52.268;9.008;2022-07-19T06:24:07;1.10;;;1.08;;
36915;SDS011;22836;52.268;9.008;2022-07-19T06:28:09;0.93;;;0.90;;
36915;SDS011;22836;52.268;9.008;2022-07-19T06:32:11;0.80;;;0.80;;
36915;SDS011;22836;52.268;9.008;2022-07-19T06:36:13;1.10;;;0.88;;
36915;SDS011;22836;52.268;9.008;2022-07-19T06:40:16;1.10;;;0.88;;
36915;SDS011;22836;52.268;9.008;2022-07-19T06:44:17;0.80;;;0.80;;
36915;SDS011;22836;52.268;9.008;2022-07-19T06:48:21;2.33;;;0.80;;
36915;SDS011;22836;52.268;9.008;2022-07-19T06:52:24;0.70;;;0.70;;
36915;SDS011;22836;52.268;9.008;2022-07-19T06:56:26;1.50;;;0.70;;
36915;SDS011;22836;52.268;9.008;2022-07-19T07:00:28;1.45;;;0.90;;
36915;SDS011;22836;52.268;9.008;2022-07-19T07:04:30;1.00;;;0.90;;
36915;SDS011;22836;52.268;9.008;2022-07-19T07:08:46;1.00;;;0.80;;
36915;SDS011;22836;52.268;9.008;2022-07-19T07:12:48;1.20;;;0.85;;
36915;SDS011;22836;52.268;9.008;2022-07-19T07:16:57;3.30;;;0.80;;
36915;SDS011;22836;52.268;9.008;2022-07-19T07:25:53;1.55;;;0.88;;
36915;SDS011;22836;52.268;9.008;2022-07-19T07:30:09;0.90;;;0.88;;
36915;SDS011;22836;52.268;9.008;2022-07-19T07:34:18;1.80;;;0.70;;
36915;SDS011;22836;52.268;9.008;2022-07-19T07:38:21;0.75;;;0.75;;
36915;SDS011;22836;52.268;9.008;2022-07-19T07:42:26;0.75;;;0.75;;
36915;SDS011;22836;52.268;9.008;2022-07-19T07:46:29;1.65;;;0.82;;
36915;SDS011;22836;52.268;9.008;2022-07-19T07:50:37;0.70;;;0.70;;
36915;SDS011;22836;52.268;9.008;2022-07-19T07:54:41;0.60;;;0.60;;
36915;SDS011;22836;52.268;9.008;2022-07-19T07:59:05;0.98;;;0.73;;
36915;SDS011;22836;52.268;9.008;2022-07-19T08:03:08;0.55;;;0.55;;
36915;SDS011;22836;52.268;9.008;2022-07-19T08:07:10;1.60;;;0.70;;
36915;SDS011;22836;52.268;9.008;2022-07-19T08:11:12;0.98;;;0.65;;
36915;SDS011;22836;52.268;9.008;2022-07-19T08:15:14;0.80;;;0.80;;
36915;SDS011;22836;52.268;9.008;2022-07-19T08:19:16;0.70;;;0.70;;
36915;SDS011;22836;52.268;9.008;2022-07-19T08:23:31;0.60;;;0.60;;
36915;SDS011;22836;52.268;9.008;2022-07-19T08:27:36;0.90;;;0.90;;
36915;SDS011;22836;52.268;9.008;2022-07-19T08:31:41;0.57;;;0.57;;
36915;SDS011;22836;52.268;9.008;2022-07-19T08:35:42;0.52;;;0.52;;
36915;SDS011;22836;52.268;9.008;2022-07-19T08:39:44;0.60;;;0.60;;
36915;SDS011;22836;52.268;9.008;2022-07-19T08:43:48;0.50;;;0.50;;
36915;SDS011;22836;52.268;9.008;2022-07-19T08:47:51;0.55;;;0.55;;
36915;SDS011;22836;52.268;9.008;2022-07-19T08:52:03;1.40;;;0.60;;
36915;SDS011;22836;52.268;9.008;2022-07-19T08:56:09;1.60;;;0.45;;
36915;SDS011;22836;52.268;9.008;2022-07-19T09:00:11;1.95;;;0.60;;
36915;SDS011;22836;52.268;9.008;2022-07-19T09:04:20;0.60;;;0.60;;
36915;SDS011;22836;52.268;9.008;2022-07-19T09:13:03;0.80;;;0.80;;
36915;SDS011;22836;52.268;9.008;2022-07-19T09:17:20;0.60;;;0.60;;
36915;SDS011;22836;52.268;9.008;2022-07-19T09:31:11;0.50;;;0.50;;
36915;SDS011;22836;52.268;9.008;2022-07-19T09:35:44;0.50;;;0.50;;
36915;SDS011;22836;52.268;9.008;2022-07-19T09:40:03;0.60;;;0.60;;
36915;SDS011;22836;52.268;9.008;2022-07-19T09:44:21;0.70;;;0.70;;
36915;SDS011;22836;52.268;9.008;2022-07-19T09:48:41;0.60;;;0.60;;
36915;SDS011;22836;52.268;9.008;2022-07-19T09:52:45;1.98;;;0.93;;
36915;SDS011;22836;52.268;9.008;2022-07-19T09:56:55;0.68;;;0.68;;
36915;SDS011;22836;52.268;9.008;2022-07-19T10:01:21;0.65;;;0.65;;
36915;SDS011;22836;52.268;9.008;2022-07-19T10:05:24;0.50;;;0.50;;
36915;SDS011;22836;52.268;9.008;2022-07-19T10:09:31;0.50;;;0.50;;
36915;SDS011;22836;52.268;9.008;2022-07-19T10:13:37;0.57;;;0.57;;
36915;SDS011;22836;52.268;9.008;2022-07-19T10:22:21;0.57;;;0.57;;
36915;SDS011;22836;52.268;9.008;2022-07-19T10:26:42;0.32;;;0.32;;
36915;SDS011;22836;52.268;9.008;2022-07-19T10:30:54;1.55;;;0.63;;
36915;SDS011;22836;52.268;9.008;2022-07-19T10:45:12;1.58;;;0.43;;
36915;SDS011;22836;52.268;9.008;2022-07-19T10:49:47;0.63;;;0.45;;
36915;SDS011;22836;52.268;9.008;2022-07-19T10:54:11;3.67;;;0.43;;
36915;SDS011;22836;52.268;9.008;2022-07-19T10:58:23;0.40;;;0.40;;
36915;SDS011;22836;52.268;9.008;2022-07-19T11:03:34;0.40;;;0.40;;
36915;SDS011;22836;52.268;9.008;2022-07-19T11:07:40;0.40;;;0.40;;
36915;SDS011;22836;52.268;9.008;2022-07-19T11:12:18;0.50;;;0.50;;
36915;SDS011;22836;52.268;9.008;2022-07-19T11:16:38;0.52;;;0.52;;
36915;SDS011;22836;52.268;9.008;2022-07-19T11:21:06;0.65;;;0.60;;
36915;SDS011;22836;52.268;9.008;2022-07-19T11:25:33;0.80;;;0.80;;
36915;SDS011;22836;52.268;9.008;2022-07-19T11:39:47;0.50;;;0.50;;
36915;SDS011;22836;52.268;9.008;2022-07-19T11:49:18;0.57;;;0.57;;
36915;SDS011;22836;52.268;9.008;2022-07-19T11:54:08;0.60;;;0.60;;
36915;SDS011;22836;52.268;9.008;2022-07-19T11:58:57;0.50;;;0.50;;
36915;SDS011;22836;52.268;9.008;2022-07-19T12:19:18;0.65;;;0.45;;
36915;SDS011;22836;52.268;9.008;2022-07-19T12:23:23;0.50;;;0.50;;
36915;SDS011;22836;52.268;9.008;2022-07-19T12:27:31;0.43;;;0.43;;
36915;SDS011;22836;52.268;9.008;2022-07-19T12:31:44;0.68;;;0.68;;
36915;SDS011;22836;52.268;9.008;2022-07-19T12:40:07;0.60;;;0.60;;
36915;SDS011;22836;52.268;9.008;2022-07-19T12:44:44;0.50;;;0.50;;
36915;SDS011;22836;52.268;9.008;2022-07-19T12:48:54;0.52;;;0.52;;
36915;SDS011;22836;52.268;9.008;2022-07-19T12:53:03;0.60;;;0.60;;
36915;SDS011;22836;52.268;9.008;2022-07-19T12:57:08;0.68;;;0.68;;
36915;SDS011;22836;52.268;9.008;2022-07-19T13:01:23;0.63;;;0.63;;
36915;SDS011;22836;52.268;9.008;2022-07-19T13:05:25;0.40;;;0.40;;
36915;SDS011;22836;52.268;9.008;2022-07-19T13:09:31;0.43;;;0.43;;
36915;SDS011;22836;52.268;9.008;2022-07-19T13:18:54;0.50;;;0.50;;
36915;SDS011;22836;52.268;9.008;2022-07-19T13:23:11;0.75;;;0.70;;
36915;SDS011;22836;52.268;9.008;2022-07-19T13:27:51;0.47;;;0.47;;
36915;SDS011;22836;52.268;9.008;2022-07-19T13:31:56;0.80;;;0.65;;
36915;SDS011;22836;52.268;9.008;2022-07-19T13:35:59;0.60;;;0.60;;
36915;SDS011;22836;52.268;9.008;2022-07-19T13:40:04;0.60;;;0.60;;
36915;SDS011;22836;52.268;9.008;2022-07-19T13:44:10;0.75;;;0.73;;
36915;SDS011;22836;52.268;9.008;2022-07-19T13:52:53;0.50;;;0.50;;
36915;SDS011;22836;52.268;9.008;2022-07-19T13:57:10;0.50;;;0.50;;
36915;SDS011;22836;52.268;9.008;2022-07-19T14:01:17;0.40;;;0.40;;
36915;SDS011;22836;52.268;9.008;2022-07-19T14:05:53;0.57;;;0.57;;
36915;SDS011;22836;52.268;9.008;2022-07-19T14:09:57;1.38;;;0.50;;
36915;SDS011;22836;52.268;9.008;2022-07-19T14:14:11;0.45;;;0.45;;
36915;SDS011;22836;52.268;9.008;2022-07-19T14:18:32;0.40;;;0.40;;
36915;SDS011;22836;52.268;9.008;2022-07-19T14:23:13;0.43;;;0.43;;
36915;SDS011;22836;52.268;9.008;2022-07-19T14:27:23;0.50;;;0.50;;
36915;SDS011;22836;52.268;9.008;2022-07-19T14:31:34;0.47;;;0.47;;
36915;SDS011;22836;52.268;9.008;2022-07-19T14:35:53;0.35;;;0.35;;
36915;SDS011;22836;52.268;9.008;2022-07-19T14:39:59;0.50;;;0.50;;
36915;SDS011;22836;52.268;9.008;2022-07-19T14:44:11;0.70;;;0.70;;
36915;SDS011;22836;52.268;9.008;2022-07-19T14:48:24;0.30;;;0.30;;
36915;SDS011;22836;52.268;9.008;2022-07-19T14:52:30;0.40;;;0.40;;
36915;SDS011;22836;52.268;9.008;2022-07-19T14:56:41;0.47;;;0.47;;
36915;SDS011;22836;52.268;9.008;2022-07-19T15:00:57;0.50;;;0.50;;
36915;SDS011;22836;52.268;9.008;2022-07-19T15:05:27;0.85;;;0.60;;
36915;SDS011;22836;52.268;9.008;2022-07-19T15:09:39;0.40;;;0.40;;
36915;SDS011;22836;52.268;9.008;2022-07-19T15:13:41;0.70;;;0.50;;
36915;SDS011;22836;52.268;9.008;2022-07-19T15:17:51;0.60;;;0.60;;
36915;SDS011;22836;52.268;9.008;2022-07-19T15:22:11;0.80;;;0.50;;
36915;SDS011;22836;52.268;9.008;2022-07-19T15:26:31;0.75;;;0.50;;
36915;SDS011;22836;52.268;9.008;2022-07-19T15:30:36;0.50;;;0.50;;
36915;SDS011;22836;52.268;9.008;2022-07-19T15:34:41;1.30;;;0.80;;
36915;SDS011;22836;52.268;9.008;2022-07-19T15:38:48;0.50;;;0.50;;
36915;SDS011;22836;52.268;9.008;2022-07-19T15:42:54;0.68;;;0.45;;
36915;SDS011;22836;52.268;9.008;2022-07-19T15:46:57;0.40;;;0.40;;
36915;SDS011;22836;52.268;9.008;2022-07-19T15:51:15;0.77;;;0.50;;
36915;SDS011;22836;52.268;9.008;2022-07-19T15:55:33;0.68;;;0.68;;
36915;SDS011;22836;52.268;9.008;2022-07-19T15:59:38;0.47;;;0.47;;
36915;SDS011;22836;52.268;9.008;2022-07-19T16:03:47;0.52;;;0.52;;
36915;SDS011;22836;52.268;9.008;2022-07-19T16:07:50;0.70;;;0.63;;
36915;SDS011;22836;52.268;9.008;2022-07-19T16:12:02;0.63;;;0.63;;
36915;SDS011;22836;52.268;9.008;2022-07-19T16:16:24;0.40;;;0.40;;
36915;SDS011;22836;52.268;9.008;2022-07-19T16:20:28;0.75;;;0.75;;
36915;SDS011;22836;52.268;9.008;2022-07-19T16:24:31;0.63;;;0.50;;
36915;SDS011;22836;52.268;9.008;2022-07-19T16:28:36;0.70;;;0.57;;
36915;SDS011;22836;52.268;9.008;2022-07-19T16:32:42;0.68;;;0.68;;
36915;SDS011;22836;52.268;9.008;2022-07-19T16:36:50;0.60;;;0.60;;
36915;SDS011;22836;52.268;9.008;2022-07-19T16:40:56;0.47;;;0.47;;
36915;SDS011;22836;52.268;9.008;2022-07-19T16:44:58;0.60;;;0.60;;
36915;SDS011;22836;52.268;9.008;2022-07-19T16:49:00;0.50;;;0.50;;
36915;SDS011;22836;52.268;9.008;2022-07-19T16:53:02;0.60;;;0.60;;
36915;SDS011;22836;52.268;9.008;2022-07-19T16:57:05;0.60;;;0.60;;
36915;SDS011;22836;52.268;9.008;2022-07-19T17:01:07;0.40;;;0.40;;
36915;SDS011;22836;52.268;9.008;2022-07-19T17:05:16;1.42;;;0.50;;
36915;SDS011;22836;52.268;9.008;2022-07-19T17:09:19;0.40;;;0.40;;
36915;SDS011;22836;52.268;9.008;2022-07-19T17:13:20;1.48;;;0.50;;
36915;SDS011;22836;52.268;9.008;2022-07-19T17:17:25;0.52;;;0.52;;
36915;SDS011;22836;52.268;9.008;2022-07-19T17:21:27;0.38;;;0.38;;
36915;SDS011;22836;52.268;9.008;2022-07-19T17:25:29;0.52;;;0.52;;
36915;SDS011;22836;52.268;9.008;2022-07-19T17:29:31;1.30;;;0.70;;
36915;SDS011;22836;52.268;9.008;2022-07-19T17:33:33;0.55;;;0.55;;
36915;SDS011;22836;52.268;9.008;2022-07-19T17:37:36;0.50;;;0.50;;
36915;SDS011;22836;52.268;9.008;2022-07-19T17:41:42;0.43;;;0.40;;
36915;SDS011;22836;52.268;9.008;2022-07-19T17:45:44;0.70;;;0.70;;
36915;SDS011;22836;52.268;9.008;2022-07-19T17:49:48;0.50;;;0.50;;
36915;SDS011;22836;52.268;9.008;2022-07-19T17:53:50;0.50;;;0.50;;
36915;SDS011;22836;52.268;9.008;2022-07-19T17:57:52;0.57;;;0.57;;
36915;SDS011;22836;52.268;9.008;2022-07-19T18:01:56;0.60;;;0.60;;
36915;SDS011;22836;52.268;9.008;2022-07-19T18:06:20;1.13;;;0.70;;
36915;SDS011;22836;52.268;9.008;2022-07-19T18:10:26;0.50;;;0.50;;
36915;SDS011;22836;52.268;9.008;2022-07-19T18:14:28;0.47;;;0.45;;
36915;SDS011;22836;52.268;9.008;2022-07-19T18:18:36;0.55;;;0.55;;
36915;SDS011;22836;52.268;9.008;2022-07-19T18:22:51;0.50;;;0.50;;
36915;SDS011;22836;52.268;9.008;2022-07-19T18:26:52;0.60;;;0.60;;
36915;SDS011;22836;52.268;9.008;2022-07-19T18:30:57;1.60;;;0.57;;
36915;SDS011;22836;52.268;9.008;2022-07-19T18:35:04;0.47;;;0.47;;
36915;SDS011;22836;52.268;9.008;2022-07-19T18:39:12;0.70;;;0.70;;
36915;SDS011;22836;52.268;9.008;2022-07-19T18:43:23;0.80;;;0.80;;
36915;SDS011;22836;52.268;9.008;2022-07-19T18:47:30;0.70;;;0.70;;
36915;SDS011;22836;52.268;9.008;2022-07-19T18:55:45;0.90;;;0.90;;
36915;SDS011;22836;52.268;9.008;2022-07-19T18:59:50;1.00;;;0.90;;
36915;SDS011;22836;52.268;9.008;2022-07-19T19:03:57;0.70;;;0.70;;
36915;SDS011;22836;52.268;9.008;2022-07-19T19:08:15;0.60;;;0.60;;
36915;SDS011;22836;52.268;9.008;2022-07-19T19:12:37;0.60;;;0.60;;
36915;SDS011;22836;52.268;9.008;2022-07-19T19:16:48;0.80;;;0.80;;
36915;SDS011;22836;52.268;9.008;2022-07-19T19:21:21;0.70;;;0.70;;
36915;SDS011;22836;52.268;9.008;2022-07-19T19:25:27;4.90;;;0.82;;
36915;SDS011;22836;52.268;9.008;2022-07-19T19:29:39;0.60;;;0.60;;
36915;SDS011;22836;52.268;9.008;2022-07-19T19:34:01;0.73;;;0.73;;
36915;SDS011;22836;52.268;9.008;2022-07-19T20:04:42;1.15;;;0.88;;
36915;SDS011;22836;52.268;9.008;2022-07-19T20:15:18;1.75;;;0.63;;
36915;SDS011;22836;52.268;9.008;2022-07-19T20:33:34;2.95;;;0.60;;
36915;SDS011;22836;52.268;9.008;2022-07-19T20:37:44;0.60;;;0.60;;
36915;SDS011;22836;52.268;9.008;2022-07-19T20:41:45;0.60;;;0.60;;
36915;SDS011;22836;52.268;9.008;2022-07-19T20:45:56;0.95;;;0.70;;
36915;SDS011;22836;52.268;9.008;2022-07-19T20:50:44;2.13;;;0.90;;
36915;SDS011;22836;52.268;9.008;2022-07-19T20:55:19;0.60;;;0.60;;
36915;SDS011;22836;52.268;9.008;2022-07-19T20:59:29;0.65;;;0.63;;
36915;SDS011;22836;52.268;9.008;2022-07-19T21:07:33;0.40;;;0.40;;
36915;SDS011;22836;52.268;9.008;2022-07-19T21:11:55;0.77;;;0.77;;
36915;SDS011;22836;52.268;9.008;2022-07-19T21:15:57;1.75;;;0.60;;
36915;SDS011;22836;52.268;9.008;2022-07-19T21:19:59;0.63;;;0.63;;
36915;SDS011;22836;52.268;9.008;2022-07-19T21:24:04;0.93;;;0.80;;
36915;SDS011;22836;52.268;9.008;2022-07-19T21:33:28;3.60;;;0.60;;
36915;SDS011;22836;52.268;9.008;2022-07-19T21:37:43;0.88;;;0.68;;
36915;SDS011;22836;52.268;9.008;2022-07-19T21:42:16;0.60;;;0.60;;
36915;SDS011;22836;52.268;9.008;2022-07-19T21:51:37;0.50;;;0.50;;
36915;SDS011;22836;52.268;9.008;2022-07-19T21:55:57;0.63;;;0.63;;
36915;SDS011;22836;52.268;9.008;2022-07-19T22:00:23;2.92;;;0.60;;
36915;SDS011;22836;52.268;9.008;2022-07-19T22:05:06;0.43;;;0.43;;
36915;SDS011;22836;52.268;9.008;2022-07-19T22:09:34;0.70;;;0.70;;
36915;SDS011;22836;52.268;9.008;2022-07-19T22:14:06;0.43;;;0.43;;
36915;SDS011;22836;52.268;9.008;2022-07-19T22:18:31;0.60;;;0.60;;
36915;SDS011;22836;52.268;9.008;2022-07-19T22:27:15;0.63;;;0.63;;
36915;SDS011;22836;52.268;9.008;2022-07-19T22:31:26;0.63;;;0.63;;
36915;SDS011;22836;52.268;9.008;2022-07-19T22:36:05;0.40;;;0.40;;
36915;SDS011;22836;52.268;9.008;2022-07-19T22:40:25;0.60;;;0.50;;
36915;SDS011;22836;52.268;9.008;2022-07-19T22:44:51;1.13;;;0.60;;
36915;SDS011;22836;52.268;9.008;2022-07-19T22:59:41;0.57;;;0.57;;
36915;SDS011;22836;52.268;9.008;2022-07-19T23:04:31;1.00;;;0.50;;
36915;SDS011;22836;52.268;9.008;2022-07-19T23:08:50;1.25;;;0.70;;
36915;SDS011;22836;52.268;9.008;2022-07-19T23:13:18;0.77;;;0.70;;
36915;SDS011;22836;52.268;9.008;2022-07-19T23:17:59;0.60;;;0.60;;
36915;SDS011;22836;52.268;9.008;2022-07-19T23:22:42;0.50;;;0.50;;
36915;SDS011;22836;52.268;9.008;2022-07-19T23:26:54;1.25;;;0.60;;
36915;SDS011;22836;52.268;9.008;2022-07-19T23:31:19;0.68;;;0.63;;
36915;SDS011;22836;52.268;9.008;2022-07-19T23:36:03;0.90;;;0.70;;
36915;SDS011;22836;52.268;9.008;2022-07-19T23:40:12;0.50;;;0.50;;
36915;SDS011;22836;52.268;9.008;2022-07-19T23:44:23;1.48;;;0.70;;
36915;SDS011;22836;52.268;9.008;2022-07-19T23:48:42;0.40;;;0.40;;
36915;SDS011;22836;52.268;9.008;2022-07-19T23:58:14;0.60;;;0.60;;
